Time;durP1;ratioP1;P1;durP2;ratioP2;P2;SDS_P1;SDS_P2;PMS_P1;PMS_P2;Temp;Humidity;BMP_temperature;BMP_pressure;BME280_temperature;BME280_humidity;BME280_pressure;Samples;Min_cycle;Max_cycle;Signal;HPM_P1;HPM_P2
2021/11/24 00:00:02;;;;;;;9.70;6.30;;;1.70;99.90;;;;;;5088378;28;20205;-79
2021/11/24 00:02:29;;;;;;;15.65;6.57;;;1.50;99.90;;;;;;5081225;28;20576;-78
2021/11/24 00:04:57;;;;;;;8.48;5.93;;;1.60;99.90;;;;;;5080149;28;20225;-78
2021/11/24 00:07:24;;;;;;;9.63;5.15;;;1.60;99.90;;;;;;5079332;28;20212;-79
2021/11/24 00:09:51;;;;;;;12.95;6.22;;;1.50;99.90;;;;;;5081929;28;20236;-79
2021/11/24 00:12:18;;;;;;;14.43;6.10;;;1.60;99.90;;;;;;5081850;28;20212;-79
2021/11/24 00:14:44;;;;;;;11.55;6.03;;;1.80;99.90;;;;;;5079540;28;20225;-79
2021/11/24 00:17:11;;;;;;;9.98;5.28;;;1.70;99.90;;;;;;5079046;28;20300;-78
2021/11/24 00:19:38;;;;;;;11.38;6.00;;;1.70;99.90;;;;;;5078722;28;20192;-77
2021/11/24 00:22:06;;;;;;;9.90;5.30;;;1.60;99.90;;;;;;5078800;28;20208;-78
2021/11/24 00:24:33;;;;;;;7.93;5.20;;;1.70;99.90;;;;;;5102349;22;20243;-81
2021/11/24 00:27:00;;;;;;;7.25;5.10;;;1.80;99.90;;;;;;5040588;28;20202;-82
2021/11/24 00:29:27;;;;;;;9.15;5.60;;;1.70;99.90;;;;;;5039889;28;20583;-82
2021/11/24 00:31:54;;;;;;;9.27;5.85;;;1.80;99.90;;;;;;5041679;28;20218;-83
2021/11/24 00:34:20;;;;;;;9.63;6.13;;;1.70;99.90;;;;;;5043189;28;20238;-81
2021/11/24 00:36:47;;;;;;;6.88;4.70;;;1.50;99.90;;;;;;5041426;28;20693;-82
2021/11/24 00:39:16;;;;;;;9.43;5.05;;;1.60;99.90;;;;;;5039965;28;20206;-82
2021/11/24 00:41:43;;;;;;;13.32;5.82;;;1.50;99.90;;;;;;5040171;28;20207;-82
2021/11/24 00:44:10;;;;;;;9.00;5.57;;;1.70;99.90;;;;;;5048260;28;20270;-81
2021/11/24 00:46:37;;;;;;;8.32;5.38;;;1.50;99.90;;;;;;5045730;28;20303;-82
2021/11/24 00:49:04;;;;;;;7.75;5.38;;;1.70;99.90;;;;;;5041941;28;20249;-82
2021/11/24 00:51:31;;;;;;;10.30;5.72;;;1.60;99.90;;;;;;5039775;28;20195;-83
2021/11/24 00:53:58;;;;;;;7.68;4.35;;;1.90;99.90;;;;;;5039295;28;20218;-82
2021/11/24 00:56:26;;;;;;;9.48;5.25;;;1.70;99.90;;;;;;5053704;28;20250;-82
2021/11/24 00:58:53;;;;;;;9.05;5.05;;;1.70;99.90;;;;;;5053287;28;20301;-81
2021/11/24 01:01:20;;;;;;;9.38;5.47;;;1.70;99.90;;;;;;5046904;28;20199;-83
2021/11/24 01:03:46;;;;;;;8.55;5.50;;;1.70;99.90;;;;;;5040279;28;20207;-81
2021/11/24 01:06:13;;;;;;;7.85;5.40;;;1.60;99.90;;;;;;5039135;28;20320;-83
2021/11/24 01:08:40;;;;;;;12.07;5.75;;;1.50;99.90;;;;;;5040563;28;20294;-82
2021/11/24 01:11:08;;;;;;;12.18;5.70;;;1.60;99.90;;;;;;5039744;28;20233;-82
2021/11/24 01:13:36;;;;;;;8.63;4.63;;;1.40;99.90;;;;;;5039165;28;20214;-82
2021/11/24 01:16:04;;;;;;;9.43;5.53;;;1.40;99.90;;;;;;5038835;28;20235;-83
2021/11/24 01:18:31;;;;;;;8.10;5.57;;;1.50;99.90;;;;;;5038715;28;20211;-82
2021/11/24 01:20:57;;;;;;;14.23;5.45;;;1.70;99.90;;;;;;5045618;28;20270;-81
2021/11/24 01:23:24;;;;;;;10.07;5.88;;;1.50;99.90;;;;;;5047831;28;20238;-82
2021/11/24 01:25:51;;;;;;;11.77;5.55;;;1.60;99.90;;;;;;5038404;28;20237;-82
2021/11/24 01:28:18;;;;;;;7.60;5.55;;;1.50;99.90;;;;;;5038596;28;20254;-82
2021/11/24 01:30:46;;;;;;;6.88;4.97;;;1.50;99.90;;;;;;5038865;28;20239;-81
2021/11/24 01:33:13;;;;;;;7.68;4.93;;;1.30;99.90;;;;;;5038648;28;20221;-81
2021/11/24 01:35:40;;;;;;;11.25;5.35;;;1.40;99.90;;;;;;5045639;28;20226;-81
2021/11/24 01:38:07;;;;;;;9.73;5.50;;;1.30;99.90;;;;;;5041281;28;20540;-82
2021/11/24 01:40:34;;;;;;;10.10;6.35;;;1.30;99.90;;;;;;5047462;28;20210;-82
2021/11/24 01:43:01;;;;;;;10.50;5.55;;;1.20;99.90;;;;;;5042274;28;20210;-83
2021/11/24 01:45:28;;;;;;;10.95;6.13;;;1.40;99.90;;;;;;5038518;28;20330;-82
2021/11/24 01:47:56;;;;;;;8.02;5.10;;;1.30;99.90;;;;;;5038892;28;20214;-82
2021/11/24 01:50:23;;;;;;;9.82;5.30;;;1.20;99.90;;;;;;5054434;28;20325;-82
2021/11/24 01:52:50;;;;;;;10.70;5.50;;;1.30;99.90;;;;;;5055188;28;20222;-81
2021/11/24 01:55:17;;;;;;;10.40;5.53;;;1.00;99.90;;;;;;5055722;28;20310;-82
2021/11/24 01:57:48;;;;;;;8.35;5.30;;;1.30;99.90;;;;;;5055180;28;20201;-82
2021/11/24 02:00:18;;;;;;;11.15;6.28;;;1.30;99.90;;;;;;5056320;28;20219;-81
2021/11/24 02:02:45;;;;;;;12.20;6.50;;;1.00;99.90;;;;;;5053846;28;20279;-82
2021/11/24 02:05:13;;;;;;;11.70;6.55;;;1.20;99.90;;;;;;5053082;28;20244;-82
2021/11/24 02:07:41;;;;;;;14.23;5.97;;;1.20;99.90;;;;;;5049988;28;20203;-82
2021/11/24 02:10:08;;;;;;;7.78;5.05;;;1.00;99.90;;;;;;5042275;28;20312;-81
2021/11/24 02:12:35;;;;;;;8.88;5.70;;;0.90;99.90;;;;;;5042947;28;20221;-82
2021/11/24 02:15:02;;;;;;;10.05;6.05;;;1.00;99.90;;;;;;5041006;28;20249;-82
2021/11/24 02:17:29;;;;;;;13.13;5.72;;;1.20;99.90;;;;;;5039617;28;20650;-82
2021/11/24 02:19:56;;;;;;;8.98;6.03;;;1.30;99.90;;;;;;5039077;28;20297;-82
2021/11/24 02:22:25;;;;;;;11.35;5.90;;;1.20;99.90;;;;;;5039045;28;20563;-82
2021/11/24 02:24:52;;;;;;;9.43;5.70;;;1.10;99.90;;;;;;5050049;28;20241;-81
2021/11/24 02:27:18;;;;;;;8.75;5.45;;;1.00;99.90;;;;;;5041011;28;20570;-82
2021/11/24 02:29:46;;;;;;;11.40;6.63;;;1.00;99.90;;;;;;5041459;28;20330;-82
2021/11/24 02:32:13;;;;;;;8.88;5.47;;;1.00;99.90;;;;;;5039949;28;20210;-82
2021/11/24 02:34:40;;;;;;;9.48;6.05;;;1.00;99.90;;;;;;5038319;28;20230;-82
2021/11/24 02:37:07;;;;;;;9.45;5.55;;;1.00;99.90;;;;;;5037314;28;20373;-82
2021/11/24 02:39:36;;;;;;;10.15;6.20;;;1.00;99.90;;;;;;5037163;28;20214;-82
2021/11/24 02:42:03;;;;;;;9.18;6.15;;;1.30;99.90;;;;;;5037533;28;20211;-82
2021/11/24 02:44:38;;;;;;;10.93;6.18;;;1.20;99.90;;;;;;5037618;28;20215;-82
2021/11/24 02:47:11;;;;;;;8.75;6.03;;;0.90;99.90;;;;;;5036919;28;20555;-82
2021/11/24 02:49:39;;;;;;;10.13;5.32;;;0.90;99.90;;;;;;5038029;28;20642;-82
2021/11/24 02:52:06;;;;;;;9.93;5.28;;;0.90;99.90;;;;;;5050092;28;20206;-82
2021/11/24 02:54:34;;;;;;;9.27;5.90;;;0.80;99.90;;;;;;5050683;28;20298;-82
2021/11/24 02:57:04;;;;;;;7.45;4.85;;;0.90;99.90;;;;;;5037877;28;20236;-82
2021/11/24 02:59:30;;;;;;;9.05;6.15;;;0.70;99.90;;;;;;5038580;28;20237;-82
2021/11/24 03:01:57;;;;;;;10.20;4.90;;;1.00;99.90;;;;;;5045726;28;20207;-81
2021/11/24 03:04:28;;;;;;;11.50;5.38;;;0.90;99.90;;;;;;5044896;28;20566;-81
2021/11/24 03:06:56;;;;;;;10.90;5.90;;;0.90;99.90;;;;;;5038516;28;20355;-82
2021/11/24 03:09:23;;;;;;;8.30;5.00;;;0.80;99.90;;;;;;5037995;28;20225;-82
2021/11/24 03:11:50;;;;;;;14.00;6.38;;;0.90;99.90;;;;;;5038837;28;20238;-82
2021/11/24 03:14:19;;;;;;;7.57;4.82;;;0.90;99.90;;;;;;5043069;28;20270;-82
2021/11/24 03:16:46;;;;;;;11.05;6.10;;;1.00;99.90;;;;;;5044522;28;20226;-81
2021/11/24 03:19:13;;;;;;;10.43;6.10;;;1.00;99.90;;;;;;5048887;28;20213;-82
2021/11/24 03:21:40;;;;;;;7.30;4.97;;;0.90;99.90;;;;;;5050685;28;20237;-82
2021/11/24 03:24:07;;;;;;;10.00;6.25;;;1.10;99.90;;;;;;5049390;28;20210;-81
2021/11/24 03:26:34;;;;;;;9.82;5.40;;;1.00;99.90;;;;;;5044653;28;20313;-82
2021/11/24 03:29:01;;;;;;;9.43;5.85;;;1.00;99.90;;;;;;5041757;28;20266;-82
2021/11/24 03:31:30;;;;;;;10.32;6.32;;;1.00;99.90;;;;;;5041458;28;20605;-82
2021/11/24 03:33:56;;;;;;;11.77;6.00;;;0.80;99.90;;;;;;5042129;28;20663;-82
2021/11/24 03:36:24;;;;;;;9.95;6.25;;;0.90;99.90;;;;;;5042690;28;20257;-82
2021/11/24 03:38:51;;;;;;;8.80;5.45;;;0.90;99.90;;;;;;5042514;28;20596;-82
2021/11/24 03:41:17;;;;;;;10.00;6.07;;;0.80;99.90;;;;;;5043103;28;20231;-82
2021/11/24 03:43:44;;;;;;;9.18;6.18;;;0.90;99.90;;;;;;5042363;28;20213;-82
2021/11/24 03:46:11;;;;;;;11.60;5.97;;;1.00;99.90;;;;;;5043971;28;20230;-82
2021/11/24 03:48:40;;;;;;;9.45;6.00;;;1.10;99.90;;;;;;5044593;28;20211;-82
2021/11/24 03:51:07;;;;;;;11.00;5.60;;;1.00;99.90;;;;;;5048473;28;20241;-81
2021/11/24 03:53:40;;;;;;;9.85;5.55;;;1.00;99.90;;;;;;5049402;28;20317;-82
2021/11/24 03:56:07;;;;;;;9.27;6.00;;;1.10;99.90;;;;;;5044348;28;20240;-81
2021/11/24 03:58:33;;;;;;;9.32;6.10;;;1.20;99.90;;;;;;5044137;28;20214;-81
2021/11/24 04:01:00;;;;;;;8.95;5.78;;;1.00;99.90;;;;;;5042149;28;20235;-82
2021/11/24 04:03:27;;;;;;;8.02;5.63;;;1.10;99.90;;;;;;5041078;28;20294;-82
2021/11/24 04:05:56;;;;;;;9.43;5.32;;;1.00;99.90;;;;;;5042527;28;20226;-81
2021/11/24 04:08:22;;;;;;;10.25;6.22;;;0.90;99.90;;;;;;5047773;28;20238;-81
2021/11/24 04:10:49;;;;;;;7.70;5.05;;;0.80;99.90;;;;;;5042653;28;20381;-82
2021/11/24 04:13:16;;;;;;;8.30;5.57;;;0.70;99.90;;;;;;5041565;28;20236;-81
2021/11/24 04:15:44;;;;;;;15.60;6.35;;;0.80;99.90;;;;;;5041433;28;20242;-82
2021/11/24 04:18:11;;;;;;;10.05;6.38;;;0.60;99.90;;;;;;5041070;28;20206;-81
2021/11/24 04:20:37;;;;;;;11.55;6.85;;;0.70;99.90;;;;;;5041507;28;20351;-82
2021/11/24 04:23:06;;;;;;;11.32;5.95;;;0.80;99.90;;;;;;5037637;28;20551;-82
2021/11/24 04:25:32;;;;;;;9.60;6.22;;;0.80;99.90;;;;;;5036079;28;20234;-82
2021/11/24 04:28:00;;;;;;;12.40;5.95;;;0.50;99.90;;;;;;5040233;28;20214;-82
2021/11/24 04:30:27;;;;;;;8.93;5.97;;;0.60;99.90;;;;;;5041464;28;20716;-82
2021/11/24 04:32:53;;;;;;;10.98;6.00;;;0.50;99.90;;;;;;5039132;28;20666;-82
2021/11/24 04:35:20;;;;;;;9.55;5.88;;;0.70;99.90;;;;;;5040631;28;20731;-82
2021/11/24 04:37:48;;;;;;;10.05;5.50;;;0.60;99.90;;;;;;5040259;28;20207;-82
2021/11/24 04:40:16;;;;;;;11.18;6.43;;;0.40;99.90;;;;;;5039832;28;20237;-82
2021/11/24 04:42:44;;;;;;;10.90;6.47;;;0.50;99.90;;;;;;5044092;28;20224;-80
2021/11/24 04:45:11;;;;;;;8.25;5.55;;;0.60;99.90;;;;;;5054748;28;20231;-81
2021/11/24 04:47:38;;;;;;;11.70;6.45;;;0.60;99.90;;;;;;5044783;28;20210;-81
2021/11/24 04:50:06;;;;;;;9.35;6.65;;;0.50;99.90;;;;;;5053455;28;20209;-81
2021/11/24 04:52:33;;;;;;;10.23;6.20;;;0.60;99.90;;;;;;5057461;28;20277;-81
2021/11/24 04:55:00;;;;;;;11.98;7.15;;;0.60;99.90;;;;;;5045884;28;20294;-81
2021/11/24 04:57:28;;;;;;;12.23;6.78;;;0.70;99.90;;;;;;5054947;28;20261;-81
2021/11/24 04:59:55;;;;;;;10.88;6.63;;;0.50;99.90;;;;;;5057316;28;20266;-81
2021/11/24 05:02:21;;;;;;;10.95;6.97;;;0.60;99.90;;;;;;5054948;28;20293;-81
2021/11/24 05:04:48;;;;;;;13.20;7.25;;;0.60;99.90;;;;;;5049087;28;20221;-82
2021/11/24 05:07:15;;;;;;;11.30;6.38;;;0.70;99.90;;;;;;5042458;28;20233;-82
2021/11/24 05:09:42;;;;;;;9.18;6.20;;;0.60;99.90;;;;;;5041310;28;20217;-82
2021/11/24 05:12:09;;;;;;;12.13;6.05;;;0.70;99.90;;;;;;5040935;28;20305;-83
2021/11/24 05:14:38;;;;;;;9.73;6.45;;;0.70;99.90;;;;;;5040776;28;20217;-82
2021/11/24 05:17:08;;;;;;;8.43;5.57;;;0.60;99.90;;;;;;5039999;28;20300;-82
2021/11/24 05:19:38;;;;;;;11.02;6.53;;;0.40;99.90;;;;;;5049235;28;20241;-81
2021/11/24 05:22:05;;;;;;;9.00;6.18;;;0.60;99.90;;;;;;5047654;28;20273;-82
2021/11/24 05:24:32;;;;;;;11.82;6.90;;;0.60;99.90;;;;;;5044147;28;20274;-81
2021/11/24 05:26:58;;;;;;;9.70;6.97;;;0.60;99.90;;;;;;5041676;28;20207;-82
2021/11/24 05:29:26;;;;;;;10.10;6.47;;;0.40;99.90;;;;;;5040022;28;20219;-82
2021/11/24 05:31:54;;;;;;;15.50;7.60;;;0.60;99.90;;;;;;5039002;28;20230;-81
2021/11/24 05:34:21;;;;;;;10.73;7.13;;;0.40;99.90;;;;;;5038075;28;20217;-81
2021/11/24 05:36:48;;;;;;;10.23;7.00;;;0.60;99.90;;;;;;5038818;28;20213;-80
2021/11/24 05:39:14;;;;;;;11.63;7.03;;;0.50;99.90;;;;;;5039130;28;20225;-82
2021/11/24 05:41:42;;;;;;;12.23;7.30;;;0.70;99.90;;;;;;5051227;28;20276;-81
2021/11/24 05:44:20;;;;;;;11.82;7.03;;;0.70;99.90;;;;;;5049383;28;20232;-81
2021/11/24 05:46:51;;;;;;;11.95;7.30;;;0.60;99.90;;;;;;5049711;28;20282;-81
2021/11/24 05:49:19;;;;;;;13.38;7.35;;;0.70;99.90;;;;;;5039768;28;20259;-81
2021/11/24 05:51:46;;;;;;;13.80;6.93;;;0.60;99.90;;;;;;5042482;28;20231;-81
2021/11/24 05:54:13;;;;;;;9.35;7.05;;;0.40;99.90;;;;;;5049056;28;20211;-81
2021/11/24 05:56:40;;;;;;;17.10;9.05;;;0.60;99.90;;;;;;5049108;28;20289;-81
2021/11/24 05:59:08;;;;;;;9.10;6.05;;;0.50;99.90;;;;;;5043091;28;20642;-81
2021/11/24 06:01:35;;;;;;;11.15;6.55;;;0.70;99.90;;;;;;5052230;28;20207;-82
2021/11/24 06:04:03;;;;;;;10.93;6.60;;;0.60;99.90;;;;;;5041836;28;20213;-81
2021/11/24 06:06:31;;;;;;;13.80;7.32;;;0.50;99.90;;;;;;5039729;28;20229;-81
2021/11/24 06:08:58;;;;;;;10.88;6.70;;;0.40;99.90;;;;;;5040263;28;20213;-81
2021/11/24 06:11:25;;;;;;;12.13;6.57;;;0.50;99.90;;;;;;5039014;28;20235;-81
2021/11/24 06:13:53;;;;;;;12.00;7.28;;;0.40;99.90;;;;;;5039805;28;20260;-82
2021/11/24 06:16:20;;;;;;;11.05;6.90;;;0.40;99.90;;;;;;5040409;28;20234;-81
2021/11/24 06:18:47;;;;;;;11.02;7.30;;;0.40;99.90;;;;;;5039157;28;20660;-81
2021/11/24 06:21:14;;;;;;;13.30;6.45;;;0.30;99.90;;;;;;5053205;28;20718;-82
2021/11/24 06:23:42;;;;;;;9.10;6.25;;;0.20;99.90;;;;;;5041340;28;20208;-82
2021/11/24 06:26:09;;;;;;;10.82;7.25;;;0.20;99.90;;;;;;5070662;22;20720;-78
2021/11/24 06:28:37;;;;;;;10.70;7.15;;;0.10;99.90;;;;;;5076989;28;20213;-78
2021/11/24 06:31:04;;;;;;;15.13;7.97;;;0.20;99.90;;;;;;5076794;28;20218;-78
2021/11/24 06:33:31;;;;;;;15.38;7.95;;;0.20;99.90;;;;;;5076253;28;20237;-78
2021/11/24 06:35:58;;;;;;;15.50;7.50;;;0.20;99.90;;;;;;5078434;28;20247;-79
2021/11/24 06:38:25;;;;;;;13.43;7.55;;;0.20;99.90;;;;;;5086273;28;20216;-78
2021/11/24 06:40:53;;;;;;;13.15;7.80;;;0.30;99.90;;;;;;5092295;28;20209;-78
2021/11/24 06:43:20;;;;;;;12.98;8.00;;;0.30;99.90;;;;;;5081583;28;20277;-78
2021/11/24 06:45:47;;;;;;;13.65;8.70;;;0.30;99.90;;;;;;5078016;28;20247;-79
2021/11/24 06:48:14;;;;;;;15.38;8.98;;;0.00;99.90;;;;;;5077967;28;20575;-78
2021/11/24 06:50:41;;;;;;;15.93;9.20;;;0.10;99.90;;;;;;5076444;28;20220;-79
2021/11/24 06:53:08;;;;;;;11.95;8.20;;;0.20;99.90;;;;;;5078555;28;20234;-79
2021/11/24 06:55:35;;;;;;;14.02;8.55;;;0.30;99.90;;;;;;5077497;28;20225;-79
2021/11/24 06:58:03;;;;;;;15.50;9.52;;;0.40;99.90;;;;;;5080219;28;20688;-79
2021/11/24 07:00:30;;;;;;;12.85;9.82;;;0.30;99.90;;;;;;5077850;28;20205;-79
2021/11/24 07:02:57;;;;;;;14.73;8.43;;;0.30;99.90;;;;;;5077222;28;20208;-79
2021/11/24 07:05:23;;;;;;;14.43;7.80;;;0.20;99.90;;;;;;5077408;28;20228;-79
2021/11/24 07:07:50;;;;;;;16.08;9.20;;;0.30;99.90;;;;;;5077840;28;20209;-78
2021/11/24 07:10:17;;;;;;;13.07;8.68;;;0.40;99.90;;;;;;5076349;28;20198;-78
2021/11/24 07:12:44;;;;;;;11.73;7.80;;;0.40;99.90;;;;;;5076177;28;20234;-78
2021/11/24 07:15:12;;;;;;;11.85;7.90;;;0.20;99.90;;;;;;5076233;28;20281;-77
2021/11/24 07:17:39;;;;;;;13.70;7.93;;;0.40;99.90;;;;;;5075812;28;20207;-78
2021/11/24 07:20:07;;;;;;;12.80;7.40;;;0.30;99.90;;;;;;5076107;28;20303;-79
2021/11/24 07:22:33;;;;;;;12.23;8.10;;;0.30;99.90;;;;;;5076294;28;20212;-78
2021/11/24 07:25:01;;;;;;;13.57;9.10;;;0.20;99.90;;;;;;5077065;28;20209;-81
2021/11/24 07:27:28;;;;;;;14.27;7.68;;;0.30;99.90;;;;;;5076464;28;20209;-78
2021/11/24 07:29:55;;;;;;;16.52;8.75;;;0.40;99.90;;;;;;5075898;28;20215;-79
2021/11/24 07:32:25;;;;;;;12.85;8.20;;;0.20;99.90;;;;;;5076374;28;20223;-78
2021/11/24 07:34:54;;;;;;;14.50;8.88;;;0.40;99.90;;;;;;5076644;28;20193;-79
2021/11/24 07:37:20;;;;;;;12.07;7.90;;;0.30;99.90;;;;;;5075936;28;20237;-80
2021/11/24 07:39:47;;;;;;;14.63;8.75;;;0.60;99.90;;;;;;5085428;28;20273;-78
2021/11/24 07:42:14;;;;;;;14.02;8.30;;;0.30;99.90;;;;;;5085221;28;20202;-77
2021/11/24 07:44:41;;;;;;;13.95;8.40;;;0.60;99.90;;;;;;5087086;28;20199;-79
2021/11/24 07:47:07;;;;;;;15.25;9.27;;;0.70;99.90;;;;;;5087304;28;20209;-79
2021/11/24 07:49:36;;;;;;;18.17;9.95;;;0.70;99.90;;;;;;5088352;28;20212;-79
2021/11/24 07:52:03;;;;;;;13.07;8.70;;;0.70;99.90;;;;;;5078278;28;20235;-79
2021/11/24 07:54:29;;;;;;;14.70;8.90;;;0.70;99.90;;;;;;5083618;28;20210;-80
2021/11/24 07:56:56;;;;;;;12.65;8.68;;;0.90;99.90;;;;;;5085719;28;20224;-79
2021/11/24 07:59:24;;;;;;;15.40;9.18;;;0.90;99.90;;;;;;5082844;28;20215;-79
2021/11/24 08:01:51;;;;;;;16.27;10.27;;;0.90;99.90;;;;;;5080954;28;20228;-78
2021/11/24 08:04:18;;;;;;;12.52;8.73;;;1.20;99.90;;;;;;5081874;28;20205;-79
2021/11/24 08:06:46;;;;;;;14.43;9.05;;;1.30;99.90;;;;;;5081184;28;20236;-79
2021/11/24 08:09:13;;;;;;;13.13;9.05;;;1.30;99.90;;;;;;5086216;28;20205;-79
2021/11/24 08:11:40;;;;;;;15.20;10.27;;;1.40;99.90;;;;;;5083451;28;20724;-81
2021/11/24 08:14:07;;;;;;;17.88;10.40;;;1.30;99.90;;;;;;5082964;28;20205;-80
2021/11/24 08:16:34;;;;;;;13.88;9.65;;;1.40;99.90;;;;;;5082139;28;20253;-78
2021/11/24 08:19:00;;;;;;;15.63;10.25;;;1.50;99.90;;;;;;5081970;28;20205;-79
2021/11/24 08:21:27;;;;;;;16.45;10.27;;;1.50;99.90;;;;;;5081797;28;20688;-80
2021/11/24 08:23:55;;;;;;;16.17;9.70;;;1.60;99.90;;;;;;5081029;28;20205;-78
2021/11/24 08:26:22;;;;;;;14.68;9.43;;;1.70;99.90;;;;;;5079618;28;20233;-79
2021/11/24 08:28:49;;;;;;;21.60;10.07;;;1.70;99.90;;;;;;5079914;28;20210;-81
2021/11/24 08:31:16;;;;;;;14.20;9.80;;;1.60;99.90;;;;;;5084467;28;20193;-79
2021/11/24 08:33:42;;;;;;;11.35;8.27;;;1.90;99.90;;;;;;5083121;28;20211;-78
2021/11/24 08:36:11;;;;;;;18.73;10.25;;;1.90;99.90;;;;;;5082521;28;20231;-79
2021/11/24 08:38:38;;;;;;;18.25;10.48;;;2.10;99.90;;;;;;5081960;28;20259;-79
2021/11/24 08:41:07;;;;;;;17.58;10.90;;;2.00;99.90;;;;;;5084715;28;20224;-79
2021/11/24 08:43:34;;;;;;;20.73;11.63;;;1.90;99.90;;;;;;5088624;28;20205;-77
2021/11/24 08:46:01;;;;;;;17.83;10.65;;;2.20;99.90;;;;;;5084325;28;20253;-79
2021/11/24 08:48:28;;;;;;;16.67;11.32;;;2.20;99.90;;;;;;5082583;28;20209;-79
2021/11/24 08:50:55;;;;;;;19.42;11.85;;;2.00;99.90;;;;;;5081202;28;20205;-80
2021/11/24 08:53:22;;;;;;;19.17;11.82;;;2.10;99.90;;;;;;5081587;28;20226;-79
2021/11/24 08:55:49;;;;;;;20.92;11.52;;;2.20;99.90;;;;;;5084392;28;20225;-79
2021/11/24 08:58:18;;;;;;;23.33;13.75;;;2.30;99.90;;;;;;5083019;28;20574;-79
2021/11/24 09:00:45;;;;;;;18.70;13.32;;;2.40;99.90;;;;;;5080118;28;20205;-79
2021/11/24 09:03:12;;;;;;;20.60;13.45;;;2.20;99.90;;;;;;5078926;28;20584;-78
2021/11/24 09:05:39;;;;;;;20.10;12.70;;;2.50;99.90;;;;;;5078973;28;20233;-78
2021/11/24 09:08:06;;;;;;;22.00;13.40;;;2.60;99.90;;;;;;5080472;28;20205;-80
2021/11/24 09:10:34;;;;;;;20.52;13.75;;;2.60;99.90;;;;;;5079788;28;20205;-79
2021/11/24 09:13:02;;;;;;;20.52;12.65;;;2.70;99.90;;;;;;5079265;28;20599;-80
2021/11/24 09:15:30;;;;;;;21.10;14.75;;;2.90;99.90;;;;;;5080868;28;20312;-79
2021/11/24 09:17:57;;;;;;;24.58;14.70;;;3.20;99.90;;;;;;5080846;28;20624;-80
2021/11/24 09:20:24;;;;;;;22.05;12.20;;;3.10;99.90;;;;;;5080665;28;20216;-79
2021/11/24 09:22:52;;;;;;;21.77;11.50;;;3.10;99.90;;;;;;5080335;28;20223;-79
2021/11/24 09:25:25;;;;;;;22.80;14.38;;;3.30;99.90;;;;;;5078725;28;20205;-79
2021/11/24 09:27:58;;;;;;;21.30;14.13;;;3.30;99.90;;;;;;5079216;28;20280;-79
2021/11/24 09:30:26;;;;;;;22.75;15.38;;;3.20;99.90;;;;;;5078171;28;20200;-78
2021/11/24 09:32:54;;;;;;;26.00;12.07;;;3.20;99.90;;;;;;5078266;28;20280;-78
2021/11/24 09:35:21;;;;;;;21.13;12.15;;;3.30;99.90;;;;;;5078858;28;20225;-79
2021/11/24 09:37:48;;;;;;;24.80;13.80;;;3.30;99.90;;;;;;5079150;28;20223;-78
2021/11/24 09:40:15;;;;;;;24.45;14.48;;;3.20;99.90;;;;;;5079432;28;20209;-80
2021/11/24 09:42:45;;;;;;;22.70;14.15;;;3.40;99.90;;;;;;5080398;28;20670;-79
2021/11/24 09:45:13;;;;;;;22.45;14.02;;;3.20;99.90;;;;;;5080939;28;20212;-79
2021/11/24 09:47:45;;;;;;;17.30;11.38;;;3.30;99.90;;;;;;5080426;28;20212;-79
2021/11/24 09:50:15;;;;;;;20.13;8.80;;;3.40;99.90;;;;;;5081880;28;20608;-81
2021/11/24 09:52:45;;;;;;;24.80;11.35;;;3.40;99.90;;;;;;5080205;28;20651;-79
2021/11/24 09:55:12;;;;;;;16.88;8.65;;;3.60;99.90;;;;;;5079978;28;20217;-79
2021/11/24 09:57:40;;;;;;;23.63;14.38;;;3.50;99.90;;;;;;5080726;28;20208;-79
2021/11/24 10:00:08;;;;;;;20.52;11.93;;;3.40;99.90;;;;;;5083830;28;20193;-78
2021/11/24 10:02:36;;;;;;;19.40;12.60;;;3.60;99.90;;;;;;5081283;28;20204;-80
2021/11/24 10:05:04;;;;;;;18.55;12.35;;;3.60;99.90;;;;;;5079755;28;20673;-79
2021/11/24 10:07:34;;;;;;;23.15;12.43;;;3.50;99.90;;;;;;5080530;28;20209;-78
2021/11/24 10:10:00;;;;;;;16.35;10.23;;;3.80;99.90;;;;;;5077748;28;20280;-80
2021/11/24 10:12:27;;;;;;;22.08;12.93;;;3.90;99.90;;;;;;5076251;28;20225;-81
2021/11/24 10:14:54;;;;;;;19.75;11.57;;;3.80;99.90;;;;;;5075996;28;20212;-77
2021/11/24 10:17:25;;;;;;;18.38;12.68;;;4.00;99.90;;;;;;5077869;28;20226;-78
2021/11/24 10:19:59;;;;;;;22.52;14.25;;;3.90;99.90;;;;;;5077045;28;20229;-81
2021/11/24 10:22:27;;;;;;;17.95;11.68;;;3.90;99.90;;;;;;5076052;28;20204;-77
2021/11/24 10:25:05;;;;;;;18.45;11.18;;;4.20;99.90;;;;;;5075915;28;20209;-78
2021/11/24 10:27:40;;;;;;;18.67;12.90;;;4.10;99.90;;;;;;5075365;28;20271;-78
2021/11/24 10:30:09;;;;;;;20.08;14.25;;;4.40;99.90;;;;;;5076349;28;20201;-80
2021/11/24 10:32:36;;;;;;;19.27;11.40;;;4.30;99.90;;;;;;5075859;28;20580;-78
2021/11/24 10:35:04;;;;;;;17.40;11.85;;;4.50;99.90;;;;;;5077156;28;20201;-78
2021/11/24 10:37:32;;;;;;;22.35;13.70;;;4.30;99.90;;;;;;5077262;28;20201;-78
2021/11/24 10:40:00;;;;;;;18.02;11.68;;;4.80;99.90;;;;;;5076199;28;20190;-78
2021/11/24 10:42:32;;;;;;;13.90;8.55;;;4.90;99.90;;;;;;5076873;28;20216;-78
2021/11/24 10:45:07;;;;;;;22.05;14.30;;;4.80;99.90;;;;;;5078290;28;20234;-78
2021/11/24 10:47:34;;;;;;;22.25;14.70;;;5.00;99.90;;;;;;5081379;28;20200;-78
2021/11/24 10:50:05;;;;;;;15.85;11.15;;;4.90;99.90;;;;;;5077986;28;20285;-78
2021/11/24 10:52:35;;;;;;;18.65;13.65;;;4.90;99.90;;;;;;5078758;28;20219;-79
2021/11/24 10:55:08;;;;;;;21.75;11.40;;;4.90;99.90;;;;;;5079108;28;20221;-78
2021/11/24 10:57:37;;;;;;;19.23;13.07;;;4.90;99.90;;;;;;5076595;28;20247;-77
2021/11/24 11:00:11;;;;;;;28.27;13.23;;;4.90;99.90;;;;;;5078415;28;20216;-79
2021/11/24 11:02:40;;;;;;;21.00;13.75;;;5.10;99.90;;;;;;5077342;28;20253;-78
2021/11/24 11:05:18;;;;;;;20.25;13.68;;;5.10;99.90;;;;;;5077011;28;20201;-79
2021/11/24 11:07:57;;;;;;;21.60;14.30;;;5.10;99.90;;;;;;5078716;28;20239;-79
2021/11/24 11:10:25;;;;;;;19.60;12.35;;;5.30;99.90;;;;;;5079245;28;20193;-78
2021/11/24 11:12:56;;;;;;;20.77;11.82;;;5.30;99.90;;;;;;5077547;28;20235;-78
2021/11/24 11:15:27;;;;;;;17.02;10.23;;;5.20;99.90;;;;;;5077646;28;20327;-78
2021/11/24 11:18:13;;;;;;;16.40;9.15;;;5.20;99.90;;;;;;5077006;28;20194;-79
2021/11/24 11:20:44;;;;;;;20.23;12.45;;;5.20;99.90;;;;;;5076281;28;20266;-79
2021/11/24 11:23:18;;;;;;;20.17;11.93;;;5.20;99.90;;;;;;5078190;28;20213;-79
2021/11/24 11:25:49;;;;;;;18.13;11.25;;;5.20;99.90;;;;;;5077062;28;20241;-78
2021/11/24 11:28:19;;;;;;;18.63;11.07;;;5.30;99.90;;;;;;5077010;28;20257;-78
2021/11/24 11:30:47;;;;;;;21.73;13.80;;;5.20;99.90;;;;;;5077771;28;20272;-79
2021/11/24 11:33:16;;;;;;;17.80;11.38;;;5.20;99.90;;;;;;5081117;28;20221;-80
2021/11/24 11:35:44;;;;;;;20.90;13.80;;;5.10;99.90;;;;;;5085037;28;20248;-79
2021/11/24 11:38:11;;;;;;;23.27;15.02;;;5.00;99.90;;;;;;5084179;28;20205;-79
2021/11/24 11:40:40;;;;;;;19.55;11.90;;;5.30;99.90;;;;;;5085291;28;20189;-81
2021/11/24 11:43:09;;;;;;;17.90;11.35;;;5.30;99.90;;;;;;5084144;28;20271;-79
2021/11/24 11:45:39;;;;;;;20.73;12.80;;;5.50;99.90;;;;;;5082683;28;20229;-78
2021/11/24 11:48:07;;;;;;;16.20;11.38;;;5.10;99.90;;;;;;5091094;28;20216;-79
2021/11/24 11:50:55;;;;;;;17.95;10.60;;;5.20;99.90;;;;;;5090987;28;20205;-81
2021/11/24 11:53:25;;;;;;;18.30;11.60;;;5.10;99.90;;;;;;5086144;28;20221;-79
2021/11/24 11:56:27;;;;;;;18.65;11.68;;;5.00;99.90;;;;;;5083959;28;20312;-78
2021/11/24 11:58:59;;;;;;;18.23;11.52;;;5.30;99.90;;;;;;5000069;28;20752;-79
2021/11/24 12:01:31;;;;;;;15.68;10.20;;;5.10;99.90;;;;;;5000712;28;20204;-79
2021/11/24 12:04:13;;;;;;;17.73;10.68;;;5.30;99.90;;;;;;5040892;28;20287;-78
2021/11/24 12:06:44;;;;;;;16.83;10.30;;;5.50;99.90;;;;;;5080957;28;20257;-78
2021/11/24 12:09:26;;;;;;;18.00;11.98;;;5.50;99.90;;;;;;5078910;28;20387;-78
2021/11/24 12:12:27;;;;;;;18.05;10.35;;;5.50;99.90;;;;;;5079294;28;20280;-78
2021/11/24 12:15:05;;;;;;;17.08;10.40;;;5.50;99.90;;;;;;5079180;28;20185;-78
2021/11/24 12:17:49;;;;;;;15.18;9.63;;;5.60;99.90;;;;;;5078946;28;20193;-79
2021/11/24 12:20:47;;;;;;;17.85;10.40;;;5.40;99.90;;;;;;5080677;28;20248;-79
2021/11/24 12:23:21;;;;;;;18.27;11.40;;;5.50;99.90;;;;;;5080298;28;20185;-79
2021/11/24 12:25:49;;;;;;;18.08;11.02;;;5.30;99.90;;;;;;5081334;28;20252;-79
2021/11/24 12:30:53;;;;;;;17.55;11.85;;;5.30;99.90;;;;;;5019083;28;20652;-79
2021/11/24 12:33:23;;;;;;;16.80;11.05;;;5.20;99.90;;;;;;5022376;28;20578;-79
2021/11/24 12:35:52;;;;;;;17.98;10.25;;;5.40;99.90;;;;;;5020523;28;20679;-84
2021/11/24 12:38:22;;;;;;;17.90;11.35;;;5.30;99.90;;;;;;5018049;28;20214;-78
2021/11/24 12:40:52;;;;;;;20.63;12.15;;;5.40;99.90;;;;;;5017833;28;20215;-78
2021/11/24 12:43:21;;;;;;;20.42;11.73;;;5.50;99.90;;;;;;5019702;28;20633;-78
2021/11/24 12:46:01;;;;;;;17.42;10.50;;;5.30;99.90;;;;;;5019412;28;20271;-79
2021/11/24 12:48:34;;;;;;;17.08;10.63;;;5.40;99.90;;;;;;5024878;28;20231;-77
2021/11/24 12:51:03;;;;;;;17.65;10.98;;;5.40;99.90;;;;;;5018887;28;20192;-79
2021/11/24 12:53:30;;;;;;;15.80;9.85;;;5.40;99.90;;;;;;5017606;28;20231;-79